createdAt,value
2022-08-25T00:01:58.388Z,28.90
2022-08-25T00:04:25.599Z,28.89
2022-08-25T00:06:53.547Z,28.88
2022-08-25T00:09:24.152Z,28.85
2022-08-25T00:11:51.853Z,28.82
2022-08-25T00:14:24.189Z,28.81
2022-08-25T00:16:50.754Z,28.80
2022-08-25T00:19:26.782Z,28.77
2022-08-25T00:21:55.723Z,28.80
2022-08-25T00:24:22.485Z,28.79
2022-08-25T00:26:52.839Z,28.77
2022-08-25T00:29:19.656Z,28.76
2022-08-25T00:31:47.638Z,28.76
2022-08-25T00:34:18.562Z,28.73
2022-08-25T00:36:45.408Z,28.72
2022-08-25T00:39:12.204Z,28.68
2022-08-25T00:41:42.266Z,28.65
2022-08-25T00:44:11.911Z,28.60
2022-08-25T00:46:43.102Z,28.55
2022-08-25T00:49:16.408Z,28.51
2022-08-25T00:52:00.345Z,28.45
2022-08-25T00:54:32.106Z,28.41
2022-08-25T00:57:00.243Z,28.38
2022-08-25T00:59:28.005Z,28.34
2022-08-25T01:01:55.251Z,28.31
2022-08-25T01:04:22.584Z,28.27
2022-08-25T01:06:49.638Z,28.24
2022-08-25T01:09:17.623Z,28.21
2022-08-25T01:11:45.827Z,28.16
2022-08-25T01:14:16.130Z,28.13
2022-08-25T01:16:43.938Z,28.09
2022-08-25T01:19:15.530Z,28.06
2022-08-25T01:21:48.836Z,28.01
2022-08-25T01:24:40.024Z,27.97
2022-08-25T01:27:07.905Z,27.98
2022-08-25T01:29:36.115Z,27.95
2022-08-25T01:32:07.211Z,27.92
2022-08-25T01:34:37.125Z,27.91
2022-08-25T01:37:05.347Z,27.88
2022-08-25T01:39:38.962Z,27.89
2022-08-25T01:42:28.415Z,27.87
2022-08-25T01:44:55.289Z,27.87
2022-08-25T01:47:21.909Z,27.83
2022-08-25T01:49:48.624Z,27.82
2022-08-25T01:52:24.283Z,27.77
2022-08-25T01:54:51.172Z,27.78
2022-08-25T01:57:17.903Z,27.75
2022-08-25T01:59:45.088Z,27.74
2022-08-25T02:02:12.102Z,27.72
2022-08-25T02:04:39.530Z,27.70
2022-08-25T02:07:09.110Z,27.68
2022-08-25T02:09:37.501Z,27.66
2022-08-25T02:12:04.324Z,27.64
2022-08-25T02:14:31.025Z,27.60
2022-08-25T02:16:57.734Z,27.57
2022-08-25T02:19:25.922Z,27.54
2022-08-25T02:21:53.556Z,27.51
2022-08-25T02:24:20.190Z,27.49
2022-08-25T02:26:46.841Z,27.45
2022-08-25T02:29:13.754Z,27.41
2022-08-25T02:31:40.345Z,27.37
2022-08-25T02:34:08.723Z,27.34
2022-08-25T02:36:35.883Z,27.31
2022-08-25T02:39:03.184Z,27.27
2022-08-25T02:41:31.784Z,27.25
2022-08-25T02:43:59.878Z,27.22
2022-08-25T02:46:27.241Z,27.18
2022-08-25T02:48:55.269Z,27.15
2022-08-25T02:51:23.704Z,27.11
2022-08-25T02:53:50.472Z,27.08
2022-08-25T02:56:19.139Z,27.04
2022-08-25T02:58:47.453Z,27.02
2022-08-25T03:01:15.238Z,26.99
2022-08-25T03:03:44.541Z,26.95
2022-08-25T03:06:14.740Z,26.90
2022-08-25T03:08:42.417Z,26.86
2022-08-25T03:11:09.655Z,26.83
2022-08-25T03:13:36.323Z,26.79
2022-08-25T03:16:04.547Z,26.76
2022-08-25T03:18:31.389Z,26.74
2022-08-25T03:20:59.109Z,26.70
2022-08-25T03:23:25.922Z,26.67
2022-08-25T03:26:15.976Z,26.61
2022-08-25T03:28:42.688Z,26.57
2022-08-25T03:31:09.463Z,26.53
2022-08-25T03:33:38.352Z,26.50
2022-08-25T03:36:06.670Z,26.46
2022-08-25T03:38:33.405Z,26.46
2022-08-25T03:41:00.035Z,26.43
2022-08-25T03:43:26.518Z,26.40
2022-08-25T03:45:53.274Z,26.38
2022-08-25T03:48:20.003Z,26.37
2022-08-25T03:50:51.206Z,26.34
2022-08-25T03:53:19.024Z,26.32
2022-08-25T03:55:45.736Z,26.29
2022-08-25T03:58:12.405Z,26.26
2022-08-25T04:00:39.377Z,26.25
2022-08-25T04:03:06.205Z,26.24
2022-08-25T04:05:32.943Z,26.21
2022-08-25T04:08:01.747Z,26.21
2022-08-25T04:10:28.865Z,26.20
2022-08-25T04:12:55.996Z,26.18
2022-08-25T04:15:22.914Z,26.17
2022-08-25T04:17:50.529Z,26.16
2022-08-25T04:20:19.038Z,26.14
2022-08-25T04:22:45.716Z,26.13
2022-08-25T04:25:12.812Z,26.12
2022-08-25T04:27:40.148Z,26.11
2022-08-25T04:30:07.119Z,26.10
2022-08-25T04:32:36.244Z,26.10
2022-08-25T04:35:04.293Z,26.10
2022-08-25T04:37:31.099Z,26.11
2022-08-25T04:39:57.654Z,26.10
2022-08-25T04:42:26.332Z,26.07
2022-08-25T04:44:52.874Z,26.04
2022-08-25T04:47:19.349Z,26.00
2022-08-25T04:49:45.917Z,25.97
2022-08-25T04:52:13.147Z,25.95
2022-08-25T04:54:41.269Z,25.91
2022-08-25T04:57:07.911Z,25.91
2022-08-25T04:59:34.463Z,25.89
2022-08-25T05:02:05.610Z,25.89
2022-08-25T05:04:35.071Z,25.87
2022-08-25T05:07:02.037Z,25.89
2022-08-25T05:09:29.204Z,25.89
2022-08-25T05:11:59.832Z,25.92
2022-08-25T05:14:26.846Z,25.94
2022-08-25T05:16:57.987Z,26.00
2022-08-25T05:19:25.303Z,26.13
2022-08-25T05:21:52.477Z,26.29
2022-08-25T05:24:19.608Z,26.44
2022-08-25T05:26:46.278Z,26.59
2022-08-25T05:29:13.258Z,26.74
2022-08-25T05:31:43.926Z,26.86
2022-08-25T05:34:12.562Z,26.97
2022-08-25T05:36:43.249Z,27.03
2022-08-25T05:39:10.612Z,27.05
2022-08-25T05:41:37.255Z,27.08
2022-08-25T05:44:04.142Z,27.08
2022-08-25T05:46:31.873Z,27.08
2022-08-25T05:48:59.165Z,27.05
2022-08-25T05:51:26.625Z,27.03
2022-08-25T05:53:53.296Z,27.01
2022-08-25T05:56:20.112Z,27.00
2022-08-25T05:58:47.058Z,27.00
2022-08-25T06:01:45.504Z,26.99
2022-08-25T06:04:13.459Z,27.06
2022-08-25T06:06:40.411Z,27.08
2022-08-25T06:09:08.842Z,27.10
2022-08-25T06:11:36.228Z,27.15
2022-08-25T06:14:03.078Z,27.22
2022-08-25T06:16:29.637Z,27.23
2022-08-25T06:18:56.343Z,27.23
2022-08-25T06:21:22.874Z,27.25
2022-08-25T06:23:50.317Z,27.28
2022-08-25T06:26:20.947Z,27.30
2022-08-25T06:28:49.128Z,27.34
2022-08-25T06:31:15.737Z,27.39
2022-08-25T06:33:42.399Z,27.44
2022-08-25T06:36:08.988Z,27.50
2022-08-25T06:38:36.091Z,27.58
2022-08-25T06:41:08.338Z,27.66
2022-08-25T06:43:35.015Z,27.80
2022-08-25T06:46:12.652Z,27.95
2022-08-25T06:48:39.432Z,28.12
2022-08-25T06:51:13.872Z,28.26
2022-08-25T06:53:41.595Z,28.38
2022-08-25T06:56:08.501Z,28.48
2022-08-25T06:58:35.388Z,28.56
2022-08-25T07:01:28.240Z,28.61
2022-08-25T07:04:00.603Z,28.72
2022-08-25T07:06:29.487Z,28.78
2022-08-25T07:08:55.982Z,28.85
2022-08-25T07:11:22.590Z,28.91
2022-08-25T07:13:50.511Z,28.98
2022-08-25T07:16:19.182Z,29.04
2022-08-25T07:18:47.313Z,29.13
2022-08-25T07:21:14.847Z,29.20
2022-08-25T07:23:41.953Z,29.31
2022-08-25T07:26:36.389Z,29.41
2022-08-25T07:29:01.830Z,29.58
2022-08-25T07:31:30.278Z,29.72
2022-08-25T07:34:16.369Z,29.85
2022-08-25T07:36:43.511Z,30.02
2022-08-25T07:39:10.263Z,30.21
2022-08-25T07:41:39.513Z,30.45
2022-08-25T07:44:06.846Z,30.83
2022-08-25T07:46:35.203Z,31.30
2022-08-25T07:49:16.299Z,31.82
2022-08-25T07:52:03.254Z,32.47
2022-08-25T07:54:40.000Z,33.07
2022-08-25T07:57:09.174Z,33.60
2022-08-25T07:59:40.474Z,34.11
2022-08-25T08:02:17.784Z,34.62
2022-08-25T08:04:48.474Z,35.14
2022-08-25T08:07:41.954Z,35.54
2022-08-25T08:10:42.452Z,35.95
2022-08-25T08:12:58.662Z,36.32
2022-08-25T08:15:25.269Z,36.62
2022-08-25T08:17:56.323Z,36.91
2022-08-25T08:20:24.888Z,37.14
2022-08-25T08:22:51.544Z,37.33
2022-08-25T08:25:18.745Z,37.49
2022-08-25T08:27:48.832Z,37.64
2022-08-25T08:30:15.523Z,37.77
2022-08-25T08:33:08.726Z,37.88
2022-08-25T08:35:28.611Z,37.95
2022-08-25T08:37:55.088Z,37.98
2022-08-25T08:40:21.946Z,37.95
2022-08-25T08:43:02.497Z,37.87
2022-08-25T08:45:35.540Z,37.77
2022-08-25T08:48:33.115Z,37.61
2022-08-25T08:51:15.062Z,37.49
2022-08-25T08:53:57.125Z,37.36
2022-08-25T08:56:30.746Z,37.23
2022-08-25T08:59:09.939Z,37.09
2022-08-25T09:01:53.238Z,36.97
2022-08-25T09:04:29.582Z,36.86
2022-08-25T09:06:59.892Z,36.81
2022-08-25T09:09:35.727Z,36.72
2022-08-25T09:12:33.526Z,36.60
2022-08-25T09:15:12.835Z,36.54
2022-08-25T09:17:54.776Z,36.43
2022-08-25T09:20:39.141Z,36.37
2022-08-25T09:23:30.410Z,36.33
2022-08-25T09:26:30.894Z,36.26
2022-08-25T09:29:21.339Z,36.24
2022-08-25T09:31:48.534Z,36.24
2022-08-25T09:34:22.260Z,36.17
2022-08-25T09:36:52.815Z,36.13
2022-08-25T09:39:21.072Z,36.07
2022-08-25T09:41:56.016Z,35.99
2022-08-25T09:44:43.920Z,35.92
2022-08-25T09:47:22.368Z,35.95
2022-08-25T09:50:01.177Z,35.94
2022-08-25T09:52:41.459Z,35.94
2022-08-25T09:55:08.367Z,35.93
2022-08-25T09:57:45.960Z,35.88
2022-08-25T10:00:18.857Z,35.86
2022-08-25T10:03:00.830Z,35.88
2022-08-25T10:05:35.444Z,35.95
2022-08-25T10:08:11.537Z,35.94
2022-08-25T10:10:46.219Z,35.95
2022-08-25T10:13:22.617Z,35.94
2022-08-25T10:16:05.452Z,35.92
2022-08-25T10:19:01.235Z,35.91
2022-08-25T10:21:28.163Z,35.92
2022-08-25T10:23:57.501Z,35.93
2022-08-25T10:26:39.336Z,35.89
2022-08-25T10:29:27.462Z,35.90
2022-08-25T10:31:56.007Z,35.95
2022-08-25T10:34:45.288Z,35.94
2022-08-25T10:37:38.651Z,35.99
2022-08-25T10:40:32.420Z,36.06
2022-08-25T10:43:07.913Z,36.11
2022-08-25T10:45:52.544Z,36.10
2022-08-25T10:49:04.136Z,36.09
2022-08-25T10:51:40.948Z,36.12
2022-08-25T10:54:26.133Z,36.12
2022-08-25T10:56:53.166Z,36.17
2022-08-25T10:59:34.642Z,36.16
2022-08-25T11:02:22.628Z,36.19
2022-08-25T11:04:53.170Z,36.29
2022-08-25T11:07:33.443Z,36.34
2022-08-25T11:10:07.328Z,36.38
2022-08-25T11:12:38.416Z,36.40
2022-08-25T11:15:19.147Z,36.40
2022-08-25T11:17:53.884Z,36.42
2022-08-25T11:20:44.970Z,36.43
2022-08-25T11:23:20.193Z,36.45
2022-08-25T11:25:52.668Z,36.45
2022-08-25T11:28:39.451Z,36.43
2022-08-25T11:31:09.598Z,36.50
2022-08-25T11:33:36.498Z,36.53
2022-08-25T11:36:12.829Z,36.58
2022-08-25T11:38:51.574Z,36.54
2022-08-25T11:41:34.655Z,36.55
2022-08-25T11:44:13.270Z,36.59
2022-08-25T11:47:03.794Z,36.59
2022-08-25T11:49:50.492Z,36.63
2022-08-25T11:52:46.000Z,36.63
2022-08-25T11:55:17.932Z,36.68
2022-08-25T11:57:53.598Z,36.67
2022-08-25T12:00:20.383Z,36.67
2022-08-25T12:02:53.013Z,36.66
2022-08-25T12:05:19.858Z,36.69
2022-08-25T12:08:12.494Z,36.68
2022-08-25T12:10:54.030Z,36.66
2022-08-25T12:13:51.247Z,36.68
2022-08-25T12:16:36.213Z,36.71
2022-08-25T12:19:24.417Z,36.73
2022-08-25T12:21:52.116Z,36.81
2022-08-25T12:24:25.109Z,36.82
2022-08-25T12:26:58.139Z,36.82
2022-08-25T12:30:18.517Z,36.82
2022-08-25T12:33:14.313Z,36.84
2022-08-25T12:36:00.975Z,36.84
2022-08-25T12:38:42.580Z,36.86
2022-08-25T12:41:13.704Z,36.88
2022-08-25T12:44:15.815Z,36.88
2022-08-25T12:46:44.632Z,36.95
2022-08-25T12:49:34.485Z,36.98
2022-08-25T12:52:07.071Z,37.04
2022-08-25T12:54:42.123Z,37.07
2022-08-25T12:57:25.039Z,37.05
2022-08-25T12:59:59.346Z,37.10
2022-08-25T13:02:51.628Z,37.08
2022-08-25T13:05:21.863Z,37.09
2022-08-25T13:08:18.130Z,37.11
2022-08-25T13:11:00.698Z,37.15
2022-08-25T13:13:57.549Z,37.18
2022-08-25T13:16:29.666Z,37.24
2022-08-25T13:18:59.585Z,37.25
2022-08-25T13:21:42.609Z,37.21
2022-08-25T13:24:21.366Z,37.21
2022-08-25T13:26:55.338Z,37.22
2022-08-25T13:29:25.350Z,37.25
2022-08-25T13:32:01.991Z,37.24
2022-08-25T13:34:38.387Z,37.25
2022-08-25T13:37:29.521Z,37.29
2022-08-25T13:40:25.962Z,37.30
2022-08-25T13:43:02.836Z,37.34
2022-08-25T13:45:32.403Z,37.38
2022-08-25T13:47:58.949Z,37.38
2022-08-25T13:50:26.485Z,37.38
2022-08-25T13:53:04.949Z,37.42
2022-08-25T13:55:51.657Z,37.43
2022-08-25T13:58:38.990Z,37.42
2022-08-25T14:01:48.559Z,37.42
2022-08-25T14:04:27.601Z,37.39
2022-08-25T14:07:14.349Z,37.40
2022-08-25T14:09:48.897Z,37.41
2022-08-25T14:15:17.553Z,37.45
2022-08-25T14:17:48.692Z,37.49
2022-08-25T14:20:29.109Z,37.47
2022-08-25T14:22:59.359Z,37.50
2022-08-25T14:25:28.263Z,37.51
2022-08-25T14:28:16.367Z,37.51
2022-08-25T14:30:53.849Z,37.53
2022-08-25T14:33:27.660Z,37.54
2022-08-25T14:35:55.391Z,37.56
2022-08-25T14:38:22.923Z,37.58
2022-08-25T14:40:50.419Z,37.59
2022-08-25T14:43:17.392Z,37.61
2022-08-25T14:45:46.826Z,37.63
2022-08-25T14:48:26.880Z,37.64
2022-08-25T14:50:55.882Z,37.72
2022-08-25T14:53:22.397Z,37.74
2022-08-25T14:55:49.322Z,37.76
2022-08-25T14:58:18.508Z,37.77
2022-08-25T15:00:52.951Z,37.78
2022-08-25T15:03:37.655Z,37.74
2022-08-25T15:06:06.217Z,37.77
2022-08-25T15:08:51.250Z,37.76
2022-08-25T15:11:17.856Z,37.74
2022-08-25T15:13:49.347Z,37.72
2022-08-25T15:16:33.973Z,37.66
2022-08-25T15:19:06.522Z,37.68
2022-08-25T15:21:34.277Z,37.64
2022-08-25T15:24:02.555Z,37.61
2022-08-25T15:26:29.115Z,37.59
2022-08-25T15:28:55.678Z,37.55
2022-08-25T15:31:23.558Z,37.53
2022-08-25T15:33:50.255Z,37.52
2022-08-25T15:36:24.506Z,37.50
2022-08-25T15:38:52.608Z,37.50
2022-08-25T15:41:20.919Z,37.50
2022-08-25T15:43:51.623Z,37.51
2022-08-25T15:46:21.181Z,37.49
2022-08-25T15:48:47.734Z,37.51
2022-08-25T15:51:16.255Z,37.50
2022-08-25T15:53:42.956Z,37.51
2022-08-25T15:56:14.103Z,37.52
2022-08-25T15:58:49.771Z,37.52
2022-08-25T16:01:23.729Z,37.52
2022-08-25T16:03:51.988Z,37.55
2022-08-25T16:06:19.032Z,37.54
2022-08-25T16:08:45.952Z,37.54
2022-08-25T16:11:20.346Z,37.51
2022-08-25T16:13:48.927Z,37.52
2022-08-25T16:16:17.745Z,37.50
2022-08-25T16:18:45.083Z,37.48
2022-08-25T16:21:13.709Z,37.45
2022-08-25T16:23:41.122Z,37.45
2022-08-25T16:26:10.912Z,37.45
2022-08-25T16:28:43.650Z,37.44
2022-08-25T16:31:14.020Z,37.42
2022-08-25T16:36:14.585Z,37.42
2022-08-25T16:38:42.551Z,37.39
2022-08-25T16:41:22.474Z,37.33
2022-08-25T16:43:50.118Z,37.27
2022-08-25T16:46:19.156Z,37.20
2022-08-25T16:48:46.998Z,37.16
2022-08-25T16:51:16.127Z,37.09
2022-08-25T16:54:04.408Z,37.04
2022-08-25T16:56:35.076Z,36.99
2022-08-25T16:59:03.551Z,36.95
2022-08-25T17:01:36.461Z,36.92
2022-08-25T17:04:05.192Z,36.89
2022-08-25T17:06:37.159Z,36.84
2022-08-25T17:09:05.256Z,36.82
2022-08-25T17:11:35.938Z,36.78
2022-08-25T17:14:04.635Z,36.72
2022-08-25T17:16:37.896Z,36.69
2022-08-25T17:19:07.103Z,36.63
2022-08-25T17:21:40.595Z,36.58
2022-08-25T17:24:12.476Z,36.54
2022-08-25T17:26:41.556Z,36.50
2022-08-25T17:29:09.585Z,36.45
2022-08-25T17:31:40.123Z,36.42
2022-08-25T17:34:10.584Z,36.38
2022-08-25T17:36:38.246Z,36.33
2022-08-25T17:39:08.734Z,36.29
2022-08-25T17:41:37.589Z,36.24
2022-08-25T17:44:05.057Z,36.20
2022-08-25T17:46:32.166Z,36.17
2022-08-25T17:48:58.906Z,36.11
2022-08-25T17:54:07.464Z,36.00
2022-08-25T17:56:34.224Z,35.96
2022-08-25T17:59:02.052Z,35.92
2022-08-25T18:01:32.888Z,35.85
2022-08-25T18:03:59.718Z,35.81
2022-08-25T18:06:29.570Z,35.74
2022-08-25T18:08:59.939Z,35.69
2022-08-25T18:11:28.720Z,35.63
2022-08-25T18:13:56.757Z,35.57
2022-08-25T18:16:24.581Z,35.49
2022-08-25T18:18:52.894Z,35.43
2022-08-25T18:21:20.482Z,35.39
2022-08-25T18:23:47.767Z,35.34
2022-08-25T18:26:15.427Z,35.27
2022-08-25T18:28:43.922Z,35.19
2022-08-25T18:31:12.216Z,35.12
2022-08-25T18:33:44.395Z,35.02
2022-08-25T18:36:11.735Z,34.95
2022-08-25T18:38:58.137Z,34.89
2022-08-25T18:41:26.067Z,34.80
2022-08-25T18:43:53.043Z,34.73
2022-08-25T18:46:19.938Z,34.65
2022-08-25T18:48:49.591Z,34.58
2022-08-25T18:51:22.874Z,34.52
2022-08-25T18:53:50.999Z,34.44
2022-08-25T18:56:19.250Z,34.38
2022-08-25T18:58:47.164Z,34.31
2022-08-25T19:01:15.893Z,34.23
2022-08-25T19:03:43.389Z,34.16
2022-08-25T19:06:10.661Z,34.09
2022-08-25T19:08:39.515Z,34.03
2022-08-25T19:11:09.735Z,33.96
2022-08-25T19:13:37.151Z,33.90
2022-08-25T19:16:20.480Z,33.80
2022-08-25T19:18:48.673Z,33.76
2022-08-25T19:21:15.410Z,33.70
2022-08-25T19:23:41.918Z,33.62
2022-08-25T19:26:17.389Z,33.56
2022-08-25T19:28:48.571Z,33.51
2022-08-25T19:31:18.169Z,33.45
2022-08-25T19:33:46.019Z,33.40
2022-08-25T19:36:14.105Z,33.33
2022-08-25T19:38:41.601Z,33.28
2022-08-25T19:41:10.450Z,33.22
2022-08-25T19:43:55.482Z,33.17
2022-08-25T19:46:24.532Z,33.08
2022-08-25T19:48:51.094Z,33.02
2022-08-25T19:51:19.315Z,32.94
2022-08-25T19:53:52.302Z,32.86
2022-08-25T19:56:21.547Z,32.78
2022-08-25T19:58:48.059Z,32.70
2022-08-25T20:01:18.145Z,32.64
2022-08-25T20:03:45.149Z,32.57
2022-08-25T20:06:11.764Z,32.49
2022-08-25T20:08:42.988Z,32.42
2022-08-25T20:11:09.806Z,32.35
2022-08-25T20:13:37.007Z,32.30
2022-08-25T20:16:04.198Z,32.23
2022-08-25T20:18:32.751Z,32.19
2022-08-25T20:21:00.548Z,32.15
2022-08-25T20:23:46.075Z,32.11
2022-08-25T20:26:12.673Z,32.06
2022-08-25T20:28:42.105Z,32.03
2022-08-25T20:31:09.205Z,31.96
2022-08-25T20:33:36.038Z,31.92
2022-08-25T20:36:04.686Z,31.85
2022-08-25T20:38:32.071Z,31.82
2022-08-25T20:41:00.163Z,31.79
2022-08-25T20:43:29.545Z,31.80
2022-08-25T20:46:04.934Z,31.72
2022-08-25T20:48:31.814Z,31.71
2022-08-25T20:50:58.329Z,31.66
2022-08-25T20:53:25.953Z,31.63
2022-08-25T20:55:52.553Z,31.60
2022-08-25T20:58:20.346Z,31.57
2022-08-25T21:00:47.177Z,31.53
2022-08-25T21:03:14.870Z,31.50
2022-08-25T21:05:43.245Z,31.47
2022-08-25T21:08:10.476Z,31.46
2022-08-25T21:10:37.781Z,31.48
2022-08-25T21:13:04.328Z,31.45
2022-08-25T21:15:31.352Z,31.42
2022-08-25T21:17:57.978Z,31.38
2022-08-25T21:20:26.176Z,31.37
2022-08-25T21:22:53.428Z,31.33
2022-08-25T21:25:21.657Z,31.29
2022-08-25T21:27:48.227Z,31.26
2022-08-25T21:30:15.869Z,31.21
2022-08-25T21:32:53.528Z,31.16
2022-08-25T21:35:28.881Z,31.10
2022-08-25T21:37:55.772Z,31.05
2022-08-25T21:40:22.902Z,30.98
2022-08-25T21:42:49.861Z,30.93
2022-08-25T21:45:16.472Z,30.89
2022-08-25T21:47:47.672Z,30.83
2022-08-25T21:50:14.181Z,30.81
2022-08-25T21:52:41.223Z,30.75
2022-08-25T21:55:15.961Z,30.73
2022-08-25T21:57:43.829Z,30.69
2022-08-25T22:00:12.589Z,30.65
2022-08-25T22:02:39.195Z,30.64
2022-08-25T22:05:09.254Z,30.59
2022-08-25T22:07:41.652Z,30.55
2022-08-25T22:10:09.392Z,30.52
2022-08-25T22:12:43.909Z,30.46
2022-08-25T22:15:12.472Z,30.42
2022-08-25T22:17:40.469Z,30.37
2022-08-25T22:20:08.323Z,30.35
2022-08-25T22:22:35.917Z,30.29
2022-08-25T22:25:03.949Z,30.27
2022-08-25T22:27:32.942Z,30.24
2022-08-25T22:30:00.566Z,30.21
2022-08-25T22:32:27.125Z,30.17
2022-08-25T22:34:53.876Z,30.12
2022-08-25T22:37:20.407Z,30.07
2022-08-25T22:39:47.037Z,30.03
2022-08-25T22:42:13.936Z,29.99
2022-08-25T22:44:42.446Z,29.94
2022-08-25T22:47:10.593Z,29.90
2022-08-25T22:49:39.323Z,29.85
2022-08-25T22:52:07.253Z,29.81
2022-08-25T22:54:36.673Z,29.76
2022-08-25T22:57:06.653Z,29.71
2022-08-25T22:59:33.998Z,29.67
2022-08-25T23:02:00.702Z,29.61
2022-08-25T23:04:27.415Z,29.56
2022-08-25T23:06:54.004Z,29.51
2022-08-25T23:09:21.456Z,29.45
2022-08-25T23:11:51.279Z,29.41
2022-08-25T23:14:18.824Z,29.38
2022-08-25T23:16:45.410Z,29.33
2022-08-25T23:19:14.278Z,29.28
2022-08-25T23:22:01.849Z,29.25
2022-08-25T23:24:30.633Z,29.21
2022-08-25T23:27:02.268Z,29.16
2022-08-25T23:29:31.771Z,29.10
2022-08-25T23:31:58.762Z,29.06
2022-08-25T23:34:26.041Z,29.03
2022-08-25T23:36:53.063Z,28.99
2022-08-25T23:39:21.703Z,28.96
2022-08-25T23:41:49.074Z,28.92
2022-08-25T23:44:17.092Z,28.89
2022-08-25T23:46:45.277Z,28.87
2022-08-25T23:49:18.366Z,28.82
2022-08-25T23:51:47.081Z,28.79
2022-08-25T23:54:13.746Z,28.78
2022-08-25T23:56:44.521Z,28.74
2022-08-25T23:59:18.389Z,28.72
